CheckWX is a tool to help pilots better visualize weather data.  It is not intended as a substitute for an official pre-flight weather briefing.

14:14:22 UTC

KGYR METAR
Phoenix Goodyear Airport
Goodyear, Arizona, USA
Current

27 mins ago

KGYR 151347Z 05005KT 10SM FEW150 SCT200 26/14 A2993
Observed
Sep-15 @ 13:47 UTC
Wind
  • 050° at 5 KTS
Visibility
10 SM
Flight Rules
VFR
Cloud Levels
  • Few at 15,000' AGL
  • Scattered at 20,000' AGL
Temperature
26°C / 79°F
Dewpoint
14°C / 57°F
Humidity
48%
Altimeter
29.93" Hg
Pressure
1013.52 hPa
Previous

1 hour ago

KGYR 151247Z 06005KT 10SM FEW150 SCT200 26/14 A2992 RMK FIRST
Observed
Sep-15 @ 12:47 UTC
Wind
  • 060° at 5 KTS
Visibility
10 SM
Flight Rules
VFR
Cloud Levels
  • Few at 15,000' AGL
  • Scattered at 20,000' AGL
Temperature
26°C / 79°F
Dewpoint
14°C / 57°F
Humidity
48%
Altimeter
29.92" Hg
Pressure
1013.22 hPa
Previous

10 hours ago

KGYR 150347Z 07007KT 10SM SCT080 BKN140 BKN200 29/16 A2993 RMK LAST
Observed
Sep-15 @ 03:47 UTC
Wind
  • 070° at 7 KTS
Visibility
10 SM
Flight Rules
VFR
Cloud Levels
  • Scattered at 8,000' AGL
  • Broken at 14,000' AGL
  • Broken at 20,000' AGL
Temperature
29°C / 84°F
Dewpoint
16°C / 61°F
Heat Index
29°C / 84°F
Humidity
45%
Altimeter
29.93" Hg
Pressure
1013.52 hPa